createdAt,value
2022-08-26T00:00:52.998Z,19.56
2022-08-26T00:03:22.450Z,19.55
2022-08-26T00:05:51.400Z,19.51
2022-08-26T00:08:21.615Z,19.48
2022-08-26T00:10:49.702Z,19.43
2022-08-26T00:13:18.779Z,19.32
2022-08-26T00:15:48.590Z,19.23
2022-08-26T00:18:22.379Z,19.17
2022-08-26T00:20:51.811Z,19.13
2022-08-26T00:23:20.598Z,19.10
2022-08-26T00:25:53.576Z,19.06
2022-08-26T00:28:22.466Z,18.97
2022-08-26T00:30:52.081Z,18.90
2022-08-26T00:33:20.978Z,18.88
2022-08-26T00:35:50.003Z,18.84
2022-08-26T00:38:21.410Z,18.81
2022-08-26T00:40:55.547Z,18.79
2022-08-26T00:43:26.248Z,18.76
2022-08-26T00:45:57.241Z,18.73
2022-08-26T00:48:27.719Z,18.72
2022-08-26T00:51:14.851Z,18.70
2022-08-26T00:53:53.789Z,18.68
2022-08-26T00:56:29.100Z,18.60
2022-08-26T00:59:01.943Z,18.56
2022-08-26T01:01:33.062Z,18.53
2022-08-26T01:04:02.070Z,18.50
2022-08-26T01:06:32.057Z,18.48
2022-08-26T01:09:00.412Z,18.46
2022-08-26T01:11:28.800Z,18.44
2022-08-26T01:13:59.287Z,18.45
2022-08-26T01:16:27.669Z,18.43
2022-08-26T01:19:04.052Z,18.38
2022-08-26T01:21:44.421Z,18.32
2022-08-26T01:24:13.956Z,18.28
2022-08-26T01:26:45.111Z,18.23
2022-08-26T01:29:21.570Z,18.17
2022-08-26T01:31:57.910Z,18.13
2022-08-26T01:34:30.610Z,18.09
2022-08-26T01:37:19.950Z,18.04
2022-08-26T01:39:52.513Z,18.02
2022-08-26T01:42:23.964Z,18.03
2022-08-26T01:45:15.089Z,18.02
2022-08-26T01:47:43.775Z,17.99
2022-08-26T01:50:30.990Z,17.97
2022-08-26T01:53:06.192Z,17.95
2022-08-26T01:55:35.897Z,17.92
2022-08-26T01:58:10.268Z,17.88
2022-08-26T02:00:40.613Z,17.85
2022-08-26T02:03:19.511Z,17.83
2022-08-26T02:06:02.425Z,17.77
2022-08-26T02:08:47.001Z,17.77
2022-08-26T02:11:18.279Z,17.72
2022-08-26T02:13:51.522Z,17.68
2022-08-26T02:16:22.951Z,17.66
2022-08-26T02:18:53.813Z,17.64
2022-08-26T02:21:22.200Z,17.62
2022-08-26T02:23:56.010Z,17.63
2022-08-26T02:26:27.043Z,17.61
2022-08-26T02:28:55.513Z,17.58
2022-08-26T02:31:24.561Z,17.56
2022-08-26T02:33:53.219Z,17.51
2022-08-26T02:36:24.151Z,17.47
2022-08-26T02:38:57.626Z,17.45
2022-08-26T02:41:25.805Z,17.45
2022-08-26T02:43:53.770Z,17.46
2022-08-26T02:46:29.865Z,17.46
2022-08-26T02:48:58.917Z,17.44
2022-08-26T02:51:28.130Z,17.44
2022-08-26T02:53:57.237Z,17.42
2022-08-26T02:56:25.282Z,17.43
2022-08-26T02:58:53.461Z,17.40
2022-08-26T03:01:25.320Z,17.38
2022-08-26T03:03:54.845Z,17.34
2022-08-26T03:06:22.793Z,17.30
2022-08-26T03:08:52.255Z,17.28
2022-08-26T03:11:20.617Z,17.27
2022-08-26T03:13:51.768Z,17.23
2022-08-26T03:16:20.914Z,17.19
2022-08-26T03:18:52.293Z,17.16
2022-08-26T03:21:21.361Z,17.12
2022-08-26T03:23:50.038Z,17.11
2022-08-26T03:26:18.110Z,17.10
2022-08-26T03:29:04.818Z,17.09
2022-08-26T03:31:33.191Z,17.04
2022-08-26T03:34:01.370Z,17.01
2022-08-26T03:36:29.542Z,16.97
2022-08-26T03:38:58.845Z,16.95
2022-08-26T03:41:26.824Z,16.93
2022-08-26T03:43:57.391Z,16.92
2022-08-26T03:46:33.200Z,16.92
2022-08-26T03:49:03.438Z,16.91
2022-08-26T03:51:32.113Z,16.88
2022-08-26T03:54:03.354Z,16.83
2022-08-26T03:56:33.809Z,16.83
2022-08-26T03:59:05.059Z,16.85
2022-08-26T04:01:36.600Z,16.89
2022-08-26T04:04:05.404Z,16.95
2022-08-26T04:06:38.352Z,17.02
2022-08-26T04:09:11.715Z,17.06
2022-08-26T04:11:42.673Z,17.10
2022-08-26T04:14:17.692Z,17.14
2022-08-26T04:16:49.510Z,17.19
2022-08-26T04:19:18.874Z,17.25
2022-08-26T04:21:51.374Z,17.34
2022-08-26T04:24:22.468Z,17.43
2022-08-26T04:26:50.864Z,17.52
2022-08-26T04:29:24.290Z,17.59
2022-08-26T04:31:55.865Z,17.68
2022-08-26T04:34:28.591Z,17.76
2022-08-26T04:36:58.111Z,17.85
2022-08-26T04:39:27.986Z,17.96
2022-08-26T04:41:57.681Z,18.10
2022-08-26T04:44:29.214Z,18.22
2022-08-26T04:46:58.898Z,18.36
2022-08-26T04:49:27.886Z,18.48
2022-08-26T04:52:05.504Z,18.62
2022-08-26T04:54:33.756Z,18.76
2022-08-26T04:57:02.784Z,18.90
2022-08-26T04:59:30.754Z,19.04
2022-08-26T05:02:00.017Z,19.18
2022-08-26T05:04:28.326Z,19.30
2022-08-26T05:07:02.332Z,19.40
2022-08-26T05:09:31.090Z,19.51
2022-08-26T05:11:59.268Z,19.66
2022-08-26T05:14:28.135Z,19.80
2022-08-26T05:16:56.427Z,19.99
2022-08-26T05:19:25.715Z,20.46
2022-08-26T05:21:56.891Z,21.21
2022-08-26T05:24:25.254Z,22.04
2022-08-26T05:26:53.427Z,22.93
2022-08-26T05:29:21.334Z,23.78
2022-08-26T05:31:52.409Z,24.53
2022-08-26T05:34:21.414Z,25.24
2022-08-26T05:36:49.398Z,25.98
2022-08-26T05:39:17.962Z,26.65
2022-08-26T05:41:46.340Z,27.19
2022-08-26T05:44:16.155Z,27.57
2022-08-26T05:46:46.181Z,27.69
2022-08-26T05:49:16.533Z,28.36
2022-08-26T05:51:47.578Z,29.10
2022-08-26T05:54:21.737Z,29.80
2022-08-26T05:56:53.605Z,30.41
2022-08-26T05:59:24.469Z,30.85
2022-08-26T06:01:55.195Z,30.97
2022-08-26T06:04:27.268Z,31.23
2022-08-26T06:06:58.901Z,31.66
2022-08-26T06:09:27.890Z,31.81
2022-08-26T06:11:56.722Z,32.21
2022-08-26T06:14:26.351Z,32.43
2022-08-26T06:16:55.380Z,32.58
2022-08-26T06:19:23.627Z,32.60
2022-08-26T06:21:55.087Z,32.45
2022-08-26T06:24:42.129Z,32.12
2022-08-26T06:27:14.005Z,31.65
2022-08-26T06:29:43.348Z,31.26
2022-08-26T06:32:11.799Z,30.66
2022-08-26T06:34:39.743Z,30.17
2022-08-26T06:37:09.154Z,29.74
2022-08-26T06:39:41.087Z,29.49
2022-08-26T06:42:11.937Z,29.25
2022-08-26T06:44:40.926Z,29.04
2022-08-26T06:47:09.267Z,28.91
2022-08-26T06:49:37.612Z,28.66
2022-08-26T06:52:05.607Z,28.54
2022-08-26T06:54:33.955Z,28.51
2022-08-26T06:57:02.206Z,28.51
2022-08-26T06:59:31.551Z,28.44
2022-08-26T07:01:59.662Z,28.40
2022-08-26T07:04:28.209Z,28.46
2022-08-26T07:06:56.844Z,28.46
2022-08-26T07:09:32.845Z,28.58
2022-08-26T07:12:02.518Z,28.78
2022-08-26T07:14:31.984Z,28.87
2022-08-26T07:17:01.186Z,28.86
2022-08-26T07:19:31.471Z,28.87
2022-08-26T07:22:04.339Z,29.06
2022-08-26T07:24:36.174Z,29.26
2022-08-26T07:27:07.078Z,29.49
2022-08-26T07:29:39.243Z,29.57
2022-08-26T07:32:09.947Z,29.73
2022-08-26T07:34:39.210Z,29.99
2022-08-26T07:37:09.814Z,30.32
2022-08-26T07:39:38.211Z,30.53
2022-08-26T07:42:13.455Z,30.68
2022-08-26T07:44:43.233Z,30.92
2022-08-26T07:47:25.522Z,31.17
2022-08-26T07:49:57.742Z,31.42
2022-08-26T07:52:28.999Z,31.53
2022-08-26T07:54:59.346Z,31.77
2022-08-26T07:57:29.051Z,31.97
2022-08-26T07:59:57.816Z,32.28
2022-08-26T08:02:28.665Z,32.53
2022-08-26T08:04:58.252Z,32.90
2022-08-26T08:07:44.240Z,33.22
2022-08-26T08:10:18.699Z,33.43
2022-08-26T08:12:50.414Z,33.69
2022-08-26T08:15:21.457Z,34.11
2022-08-26T08:17:50.724Z,34.39
2022-08-26T08:20:21.180Z,34.71
2022-08-26T08:22:52.259Z,34.93
2022-08-26T08:25:23.000Z,35.23
2022-08-26T08:27:50.960Z,35.41
2022-08-26T08:30:22.995Z,35.56
2022-08-26T08:32:52.634Z,35.89
2022-08-26T08:35:23.287Z,36.30
2022-08-26T08:37:54.435Z,36.50
2022-08-26T08:40:26.069Z,36.66
2022-08-26T08:43:06.668Z,36.76
2022-08-26T08:46:00.924Z,36.53
2022-08-26T08:48:37.286Z,36.37
2022-08-26T08:51:43.680Z,36.68
2022-08-26T08:54:12.719Z,37.25
2022-08-26T08:56:49.446Z,37.84
2022-08-26T08:59:17.373Z,38.53
2022-08-26T09:02:12.833Z,38.97
2022-08-26T09:05:08.208Z,38.99
2022-08-26T09:07:40.138Z,38.63
2022-08-26T09:10:25.608Z,38.99
2022-08-26T09:12:53.669Z,39.71
2022-08-26T09:15:40.709Z,39.79
2022-08-26T09:18:15.835Z,39.33
2022-08-26T09:20:55.841Z,38.84
2022-08-26T09:23:25.343Z,39.18
2022-08-26T09:26:00.444Z,39.11
2022-08-26T09:28:30.930Z,39.27
2022-08-26T09:31:21.792Z,39.44
2022-08-26T09:34:17.365Z,39.91
2022-08-26T09:36:50.316Z,40.60
2022-08-26T09:39:24.064Z,40.99
2022-08-26T09:42:14.161Z,41.40
2022-08-26T09:45:00.691Z,41.77
2022-08-26T09:47:33.311Z,42.08
2022-08-26T09:50:28.823Z,42.14
2022-08-26T09:53:09.879Z,42.59
2022-08-26T09:55:46.995Z,43.08
2022-08-26T09:58:37.815Z,43.24
2022-08-26T10:01:09.250Z,43.77
2022-08-26T10:03:39.764Z,44.18
2022-08-26T10:06:23.249Z,44.27
2022-08-26T10:08:55.785Z,44.77
2022-08-26T10:11:42.865Z,44.99
2022-08-26T10:14:16.060Z,45.83
2022-08-26T10:17:02.636Z,46.21
2022-08-26T10:19:57.829Z,45.33
2022-08-26T10:22:54.348Z,43.95
2022-08-26T10:25:28.546Z,43.21
2022-08-26T10:28:18.281Z,42.89
2022-08-26T10:30:56.837Z,42.33
2022-08-26T10:33:25.344Z,42.57
2022-08-26T10:35:57.282Z,42.87
2022-08-26T10:38:32.361Z,41.98
2022-08-26T10:41:10.653Z,42.69
2022-08-26T10:43:52.256Z,43.55
2022-08-26T10:46:27.097Z,44.27
2022-08-26T10:49:06.845Z,43.67
2022-08-26T10:51:42.357Z,42.84
2022-08-26T10:54:39.705Z,43.83
2022-08-26T10:57:35.248Z,44.78
2022-08-26T11:00:32.691Z,45.33
2022-08-26T11:03:22.388Z,45.68
2022-08-26T11:06:21.569Z,46.18
2022-08-26T11:08:53.506Z,46.21
2022-08-26T11:11:39.630Z,46.26
2022-08-26T11:14:29.105Z,45.26
2022-08-26T11:16:59.933Z,45.51
2022-08-26T11:19:45.637Z,44.85
2022-08-26T11:22:47.688Z,44.49
2022-08-26T11:25:20.847Z,44.58
2022-08-26T11:27:48.709Z,44.25
2022-08-26T11:30:18.395Z,43.93
2022-08-26T11:32:52.011Z,43.60
2022-08-26T11:35:20.043Z,42.38
2022-08-26T11:37:51.173Z,41.39
2022-08-26T11:40:38.601Z,40.88
2022-08-26T11:43:13.385Z,40.07
2022-08-26T11:45:45.050Z,40.85
2022-08-26T11:48:19.042Z,42.43
2022-08-26T11:51:01.910Z,43.05
2022-08-26T11:53:34.385Z,42.94
2022-08-26T11:56:06.874Z,42.03
2022-08-26T11:58:35.908Z,41.79
2022-08-26T12:01:22.221Z,41.49
2022-08-26T12:03:52.672Z,40.52
2022-08-26T12:09:02.645Z,41.61
2022-08-26T12:11:36.450Z,42.11
2022-08-26T12:14:17.635Z,42.35
2022-08-26T12:16:45.839Z,42.50
2022-08-26T12:19:27.456Z,42.23
2022-08-26T12:22:08.152Z,42.54
2022-08-26T12:24:36.378Z,41.41
2022-08-26T12:27:18.054Z,41.98
2022-08-26T12:30:14.443Z,42.04
2022-08-26T12:33:03.412Z,42.10
2022-08-26T12:35:54.375Z,42.96
2022-08-26T12:38:27.719Z,43.35
2022-08-26T12:40:57.209Z,43.74
2022-08-26T12:43:40.198Z,44.33
2022-08-26T12:46:12.860Z,45.12
2022-08-26T12:48:45.052Z,45.84
2022-08-26T12:51:24.887Z,46.54
2022-08-26T12:53:54.375Z,47.20
2022-08-26T12:56:39.123Z,47.38
2022-08-26T12:59:26.222Z,47.10
2022-08-26T13:01:54.719Z,46.33
2022-08-26T13:04:42.432Z,46.04
2022-08-26T13:07:25.712Z,46.01
2022-08-26T13:09:56.810Z,46.47
2022-08-26T13:12:50.904Z,46.69
2022-08-26T13:15:18.898Z,45.60
2022-08-26T13:17:46.855Z,44.59
2022-08-26T13:20:14.807Z,43.87
2022-08-26T13:22:43.849Z,43.83
2022-08-26T13:25:11.989Z,43.52
2022-08-26T13:27:40.687Z,43.09
2022-08-26T13:30:10.817Z,42.40
2022-08-26T13:32:41.365Z,42.08
2022-08-26T13:35:11.290Z,41.73
2022-08-26T13:37:39.303Z,40.20
2022-08-26T13:40:10.329Z,38.43
2022-08-26T13:42:49.418Z,37.16
2022-08-26T13:45:18.497Z,36.63
2022-08-26T13:47:46.637Z,36.67
2022-08-26T13:50:14.826Z,36.65
2022-08-26T13:52:42.876Z,37.42
2022-08-26T13:55:11.277Z,38.73
2022-08-26T13:57:39.276Z,40.11
2022-08-26T14:00:11.055Z,41.26
2022-08-26T14:02:39.349Z,41.79
2022-08-26T14:05:08.379Z,42.40
2022-08-26T14:07:37.033Z,43.01
2022-08-26T14:10:05.366Z,41.41
2022-08-26T14:12:33.444Z,39.57
2022-08-26T14:15:01.447Z,38.55
2022-08-26T14:17:30.786Z,38.28
2022-08-26T14:19:59.036Z,38.73
2022-08-26T14:22:27.037Z,38.63
2022-08-26T14:24:55.117Z,38.35
2022-08-26T14:27:23.177Z,38.41
2022-08-26T14:29:52.345Z,38.75
2022-08-26T14:32:29.159Z,38.79
2022-08-26T14:34:57.238Z,39.66
2022-08-26T14:37:25.903Z,41.65
2022-08-26T14:39:55.165Z,42.26
2022-08-26T14:42:31.550Z,41.92
2022-08-26T14:45:03.302Z,42.10
2022-08-26T14:47:31.975Z,43.32
2022-08-26T14:50:00.817Z,43.51
2022-08-26T14:52:30.168Z,42.96
2022-08-26T14:54:58.286Z,43.30
2022-08-26T14:57:26.287Z,44.08
2022-08-26T14:59:54.316Z,43.68
2022-08-26T15:05:16.813Z,45.17
2022-08-26T15:07:44.861Z,45.58
2022-08-26T15:10:15.180Z,46.20
2022-08-26T15:12:43.226Z,46.45
2022-08-26T15:15:13.593Z,46.78
2022-08-26T15:17:41.689Z,46.16
2022-08-26T15:20:11.352Z,45.03
2022-08-26T15:22:42.639Z,43.10
2022-08-26T15:25:12.527Z,42.36
2022-08-26T15:27:40.847Z,43.21
2022-08-26T15:30:12.550Z,43.37
2022-08-26T15:32:40.756Z,41.76
2022-08-26T15:35:09.530Z,40.81
2022-08-26T15:37:39.140Z,40.42
2022-08-26T15:40:09.740Z,39.37
2022-08-26T15:42:37.947Z,40.70
2022-08-26T15:45:06.345Z,41.83
2022-08-26T15:47:44.427Z,42.96
2022-08-26T15:50:25.444Z,42.81
2022-08-26T15:52:53.412Z,43.39
2022-08-26T15:55:24.183Z,43.45
2022-08-26T15:57:52.149Z,42.84
2022-08-26T16:00:20.893Z,42.32
2022-08-26T16:02:48.943Z,41.05
2022-08-26T16:05:18.065Z,39.96
2022-08-26T16:07:46.233Z,40.19
2022-08-26T16:10:14.477Z,40.71
2022-08-26T16:12:42.462Z,40.88
2022-08-26T16:15:11.144Z,40.25
2022-08-26T16:17:40.825Z,39.08
2022-08-26T16:20:09.703Z,38.29
2022-08-26T16:22:37.671Z,38.33
2022-08-26T16:25:07.598Z,38.51
2022-08-26T16:27:35.653Z,38.37
2022-08-26T16:30:07.092Z,38.64
2022-08-26T16:32:35.045Z,38.74
2022-08-26T16:35:02.898Z,38.96
2022-08-26T16:37:30.925Z,38.77
2022-08-26T16:39:58.919Z,38.44
2022-08-26T16:42:26.981Z,37.18
2022-08-26T16:44:55.346Z,35.70
2022-08-26T16:47:23.427Z,34.63
2022-08-26T16:49:51.701Z,33.78
2022-08-26T16:52:20.072Z,33.18
2022-08-26T16:54:49.444Z,32.80
2022-08-26T16:57:17.657Z,32.60
2022-08-26T16:59:46.300Z,32.48
2022-08-26T17:02:14.370Z,32.27
2022-08-26T17:04:46.156Z,32.10
2022-08-26T17:07:15.518Z,31.86
2022-08-26T17:09:43.763Z,31.62
2022-08-26T17:12:12.232Z,31.39
2022-08-26T17:14:40.405Z,31.21
2022-08-26T17:17:08.436Z,31.01
2022-08-26T17:19:40.769Z,30.81
2022-08-26T17:22:10.012Z,30.59
2022-08-26T17:24:39.035Z,30.46
2022-08-26T17:27:07.050Z,30.34
2022-08-26T17:29:35.235Z,30.20
2022-08-26T17:32:03.536Z,29.97
2022-08-26T17:34:31.580Z,29.78
2022-08-26T17:36:59.715Z,29.55
2022-08-26T17:39:27.795Z,29.24
2022-08-26T17:41:55.846Z,28.99
2022-08-26T17:44:24.588Z,28.75
2022-08-26T17:46:53.208Z,28.48
2022-08-26T17:49:21.115Z,28.28
2022-08-26T17:51:49.360Z,28.11
2022-08-26T17:54:17.515Z,28.01
2022-08-26T17:56:49.385Z,27.91
2022-08-26T17:59:30.479Z,27.75
2022-08-26T18:02:00.299Z,27.56
2022-08-26T18:04:31.946Z,27.35
2022-08-26T18:06:59.975Z,27.11
2022-08-26T18:09:31.628Z,26.94
2022-08-26T18:12:00.431Z,26.84
2022-08-26T18:14:28.325Z,26.72
2022-08-26T18:16:56.391Z,26.63
2022-08-26T18:19:24.355Z,26.49
2022-08-26T18:21:53.150Z,26.30
2022-08-26T18:24:21.005Z,26.20
2022-08-26T18:26:49.868Z,26.11
2022-08-26T18:29:20.038Z,25.99
2022-08-26T18:31:48.875Z,25.96
2022-08-26T18:34:17.139Z,25.94
2022-08-26T18:36:46.218Z,25.86
2022-08-26T18:39:15.540Z,25.88
2022-08-26T18:41:49.594Z,25.82
2022-08-26T18:44:20.378Z,25.78
2022-08-26T18:46:48.345Z,25.69
2022-08-26T18:49:18.556Z,25.63
2022-08-26T18:51:47.835Z,25.61
2022-08-26T18:54:15.874Z,25.57
2022-08-26T18:56:44.635Z,25.56
2022-08-26T18:59:15.056Z,25.54
2022-08-26T19:01:43.621Z,25.50
2022-08-26T19:04:15.614Z,25.48
2022-08-26T19:06:47.710Z,25.46
2022-08-26T19:09:17.909Z,25.40
2022-08-26T19:11:48.847Z,25.33
2022-08-26T19:14:18.936Z,25.23
2022-08-26T19:16:49.754Z,25.14
2022-08-26T19:19:18.455Z,25.05
2022-08-26T19:21:48.619Z,24.96
2022-08-26T19:24:19.125Z,24.94
2022-08-26T19:26:51.394Z,24.92
2022-08-26T19:29:28.573Z,24.85
2022-08-26T19:31:56.902Z,24.75
2022-08-26T19:34:24.972Z,24.65
2022-08-26T19:36:54.331Z,24.67
2022-08-26T19:39:22.487Z,24.63
2022-08-26T19:41:50.464Z,24.59
2022-08-26T19:44:40.461Z,24.57
2022-08-26T19:47:11.139Z,24.50
2022-08-26T19:49:39.433Z,24.41
2022-08-26T19:52:07.691Z,24.35
2022-08-26T19:54:36.394Z,24.28
2022-08-26T19:57:05.525Z,24.21
2022-08-26T19:59:34.053Z,24.17
2022-08-26T20:02:07.138Z,24.19
2022-08-26T20:04:39.170Z,24.18
2022-08-26T20:07:07.789Z,24.10
2022-08-26T20:09:36.324Z,24.00
2022-08-26T20:12:06.193Z,23.94
2022-08-26T20:14:35.396Z,23.93
2022-08-26T20:17:06.322Z,23.93
2022-08-26T20:19:53.375Z,23.91
2022-08-26T20:22:22.373Z,23.90
2022-08-26T20:24:50.664Z,23.91
2022-08-26T20:27:18.912Z,23.88
2022-08-26T20:29:47.069Z,23.84
2022-08-26T20:32:15.385Z,23.82
2022-08-26T20:34:43.640Z,23.79
2022-08-26T20:37:12.623Z,23.77
2022-08-26T20:39:41.745Z,23.79
2022-08-26T20:42:20.490Z,23.81
2022-08-26T20:44:54.160Z,23.67
2022-08-26T20:47:23.469Z,23.57
2022-08-26T20:49:52.345Z,23.48
2022-08-26T20:52:23.902Z,23.45
2022-08-26T20:54:52.066Z,23.40
2022-08-26T20:57:22.604Z,23.37
2022-08-26T20:59:50.775Z,23.38
2022-08-26T21:02:19.045Z,23.34
2022-08-26T21:04:50.000Z,23.29
2022-08-26T21:07:21.105Z,23.29
2022-08-26T21:09:52.586Z,23.27
2022-08-26T21:12:20.578Z,23.30
2022-08-26T21:14:49.750Z,23.31
2022-08-26T21:17:18.736Z,23.29
2022-08-26T21:19:46.799Z,23.32
2022-08-26T21:22:14.905Z,23.33
2022-08-26T21:24:43.032Z,23.30
2022-08-26T21:27:11.235Z,23.24
2022-08-26T21:29:39.313Z,23.23
2022-08-26T21:32:07.389Z,23.21
2022-08-26T21:34:35.652Z,23.16
2022-08-26T21:37:06.006Z,23.13
2022-08-26T21:39:43.406Z,23.11
2022-08-26T21:42:11.505Z,23.06
2022-08-26T21:44:39.435Z,23.03
2022-08-26T21:47:07.421Z,23.01
2022-08-26T21:49:35.777Z,22.97
2022-08-26T21:52:04.916Z,22.94
2022-08-26T21:54:33.032Z,22.87
2022-08-26T21:57:02.217Z,22.78
2022-08-26T21:59:30.332Z,22.75
2022-08-26T22:01:58.950Z,22.73
2022-08-26T22:04:28.625Z,22.73
2022-08-26T22:07:00.240Z,22.76
2022-08-26T22:09:33.620Z,22.78
2022-08-26T22:12:01.890Z,22.73
2022-08-26T22:14:31.037Z,22.78
2022-08-26T22:17:00.425Z,22.72
2022-08-26T22:19:30.109Z,22.68
2022-08-26T22:21:58.572Z,22.66
2022-08-26T22:24:27.579Z,22.61
2022-08-26T22:26:56.226Z,22.59
2022-08-26T22:29:25.458Z,22.58
2022-08-26T22:31:53.879Z,22.56
2022-08-26T22:34:23.437Z,22.56
2022-08-26T22:36:51.592Z,22.51
2022-08-26T22:39:23.957Z,22.45
2022-08-26T22:41:53.502Z,22.43
2022-08-26T22:44:22.470Z,22.42
2022-08-26T22:46:54.463Z,22.37
2022-08-26T22:49:24.016Z,22.33
2022-08-26T22:51:52.001Z,22.27
2022-08-26T22:54:20.305Z,22.20
2022-08-26T22:56:48.912Z,22.18
2022-08-26T22:59:16.984Z,22.15
2022-08-26T23:01:47.659Z,22.14
2022-08-26T23:04:15.770Z,22.09
2022-08-26T23:06:47.617Z,22.04
2022-08-26T23:09:18.672Z,22.01
2022-08-26T23:11:48.744Z,21.95
2022-08-26T23:14:18.834Z,21.91
2022-08-26T23:16:47.880Z,21.85
2022-08-26T23:19:22.069Z,21.81
2022-08-26T23:21:50.820Z,21.75
2022-08-26T23:24:19.337Z,21.69
2022-08-26T23:26:47.298Z,21.63
2022-08-26T23:29:16.160Z,21.54
2022-08-26T23:31:44.784Z,21.48
2022-08-26T23:34:32.510Z,21.41
2022-08-26T23:37:01.124Z,21.32
2022-08-26T23:39:31.394Z,21.25
2022-08-26T23:42:01.945Z,21.17
2022-08-26T23:44:31.129Z,21.09
2022-08-26T23:46:59.789Z,20.97
2022-08-26T23:49:28.052Z,20.83
2022-08-26T23:52:14.765Z,20.72
2022-08-26T23:54:43.066Z,20.62
2022-08-26T23:57:11.713Z,20.55
2022-08-26T23:59:39.989Z,20.43
